Time;durP1;ratioP1;P1;durP2;ratioP2;P2;SDS_P1;SDS_P2;PMS_P1;PMS_P2;Temp;Humidity;BMP_temperature;BMP_pressure;BME280_temperature;BME280_humidity;BME280_pressure;Samples;Min_cycle;Max_cycle;Signal;HPM_P1;HPM_P2
2021/04/25 00:02:10;;;;;;;9.10;4.18;;;4.80;99.90;;;6.04;64.77;101612.03;4830492;29;20034;-83
2021/04/25 00:04:37;;;;;;;12.68;5.00;;;4.70;99.90;;;5.88;65.12;101613.41;4838583;29;20066;-83
2021/04/25 00:07:05;;;;;;;10.63;4.82;;;4.60;99.90;;;5.74;65.93;101607.81;4840076;29;20050;-83
2021/04/25 00:09:31;;;;;;;10.63;4.70;;;4.50;99.90;;;5.66;66.65;101613.22;4837659;29;20034;-82
2021/04/25 00:11:58;;;;;;;14.23;5.35;;;4.40;99.90;;;5.56;66.84;101611.44;4851406;29;20034;-83
2021/04/25 00:14:24;;;;;;;8.88;4.97;;;4.30;99.90;;;5.55;66.55;101609.81;4835593;29;20030;-81
2021/04/25 00:16:50;;;;;;;13.68;5.35;;;4.30;99.90;;;5.42;67.54;101609.72;4836481;29;20049;-85
2021/04/25 00:19:16;;;;;;;12.68;4.38;;;4.20;99.90;;;5.43;67.40;101609.41;4829709;29;20429;-83
2021/04/25 00:21:41;;;;;;;11.52;4.40;;;4.20;99.90;;;5.42;67.53;101606.97;4833040;29;20049;-84
2021/04/25 00:24:08;;;;;;;11.30;5.05;;;4.10;99.90;;;5.36;67.83;101600.69;4833044;29;20042;-85
2021/04/25 00:26:34;;;;;;;12.05;4.78;;;4.10;99.90;;;5.33;68.02;101609.56;4833075;29;20462;-85
2021/04/25 00:28:59;;;;;;;8.95;4.53;;;4.10;99.90;;;5.26;68.16;101606.38;4831100;29;20030;-85
2021/04/25 00:31:25;;;;;;;10.25;4.68;;;3.90;99.90;;;5.19;68.19;101605.91;4827979;29;20033;-82
2021/04/25 00:33:51;;;;;;;14.45;5.32;;;3.90;99.90;;;5.10;68.67;101608.53;4828666;29;20034;-83
2021/04/25 00:36:17;;;;;;;7.15;4.13;;;3.90;99.90;;;5.01;68.73;101599.22;4828428;29;20042;-83
2021/04/25 00:38:43;;;;;;;14.23;5.53;;;3.80;99.90;;;4.98;69.05;101599.00;4826841;29;20045;-84
2021/04/25 00:41:09;;;;;;;11.88;4.78;;;3.70;99.90;;;4.96;68.91;101606.78;4828840;29;20045;-82
2021/04/25 00:43:36;;;;;;;11.23;4.47;;;3.70;99.90;;;4.89;69.69;101598.00;4828428;29;20041;-84
2021/04/25 00:46:02;;;;;;;12.23;4.95;;;3.60;99.90;;;4.93;69.70;101607.38;4827075;29;20027;-83
2021/04/25 00:48:28;;;;;;;11.18;5.05;;;3.60;99.90;;;4.95;70.18;101599.59;4841651;29;20030;-84
2021/04/25 00:50:54;;;;;;;13.77;5.32;;;3.60;99.90;;;4.97;69.81;101595.44;4826872;29;20080;-85
2021/04/25 00:53:22;;;;;;;16.73;5.50;;;3.60;99.90;;;4.97;70.01;101591.84;4829351;29;20088;-84
2021/04/25 00:55:51;;;;;;;14.40;6.18;;;3.70;99.90;;;4.95;70.06;101591.28;4828928;29;20034;-83
2021/04/25 00:58:18;;;;;;;11.30;4.95;;;3.70;99.90;;;4.92;70.16;101595.47;4829578;29;20038;-84
2021/04/25 01:00:44;;;;;;;10.05;4.60;;;3.60;99.90;;;4.81;70.25;101605.06;4843179;29;20038;-82
2021/04/25 01:03:10;;;;;;;15.73;5.03;;;3.60;99.90;;;4.66;70.61;101594.16;4827968;29;20041;-82
2021/04/25 01:05:36;;;;;;;10.15;4.30;;;3.40;99.90;;;4.56;71.13;101597.88;4828683;29;20034;-81
2021/04/25 01:08:03;;;;;;;13.65;5.35;;;3.40;99.90;;;4.47;71.28;101601.59;4828821;29;20112;-83
2021/04/25 01:10:29;;;;;;;12.98;4.55;;;3.30;99.90;;;4.41;72.09;101598.06;4828101;29;20503;-83
2021/04/25 01:12:59;;;;;;;11.90;5.78;;;3.20;99.90;;;4.34;72.01;101594.81;4828336;29;20045;-81
2021/04/25 01:15:26;;;;;;;17.67;6.03;;;3.20;99.90;;;4.36;72.56;101602.84;4829171;29;20041;-81
2021/04/25 01:17:55;;;;;;;10.75;4.97;;;3.10;99.90;;;4.18;73.13;101594.16;4827233;29;20050;-80
2021/04/25 01:20:23;;;;;;;13.15;5.72;;;3.10;99.90;;;4.15;73.57;101599.44;4830629;29;20072;-85
2021/04/25 01:22:50;;;;;;;12.85;5.05;;;3.10;99.90;;;4.13;73.49;101605.28;4828743;29;20047;-84
2021/04/25 01:25:23;;;;;;;10.00;5.50;;;3.10;99.90;;;4.06;73.54;101607.56;4828976;29;20034;-83
2021/04/25 01:27:51;;;;;;;11.43;5.07;;;3.10;99.90;;;3.99;74.12;101606.25;4829439;29;20038;-85
2021/04/25 01:30:26;;;;;;;11.45;4.68;;;3.00;99.90;;;3.91;74.19;101604.97;4831231;29;20034;-83
2021/04/25 01:32:56;;;;;;;11.75;4.78;;;2.90;99.90;;;3.85;74.56;101608.06;4832425;29;20129;-84
2021/04/25 01:35:25;;;;;;;10.65;4.85;;;2.90;99.90;;;3.86;74.78;101604.97;4831141;29;20043;-81
2021/04/25 01:37:58;;;;;;;13.13;5.68;;;2.90;99.90;;;3.89;75.39;101612.69;4830155;29;20126;-82
2021/04/25 01:40:31;;;;;;;17.20;6.13;;;2.80;99.90;;;3.91;75.21;101606.88;4830067;29;20034;-81
2021/04/25 01:43:00;;;;;;;16.27;6.18;;;2.80;99.90;;;3.92;75.00;101614.03;4830680;29;20060;-82
2021/04/25 01:45:28;;;;;;;10.32;5.35;;;2.80;99.90;;;3.85;74.82;101611.66;4830882;29;20070;-83
2021/04/25 01:47:59;;;;;;;14.40;6.70;;;2.80;99.90;;;3.77;75.36;101612.25;4832098;29;20472;-85
2021/04/25 01:50:28;;;;;;;16.27;6.03;;;2.80;99.90;;;3.73;75.80;101612.00;4829067;29;20091;-84
2021/04/25 01:52:57;;;;;;;12.77;5.88;;;2.70;99.90;;;3.71;75.97;101613.41;4835818;29;20022;-81
2021/04/25 01:55:25;;;;;;;18.13;6.65;;;2.70;99.90;;;3.73;76.10;101614.78;4840970;29;20041;-80
2021/04/25 01:58:23;;;;;;;13.32;5.63;;;2.70;99.90;;;3.82;76.34;101620.50;4834796;29;20038;-79
2021/04/25 02:00:49;;;;;;;13.43;6.72;;;2.70;99.90;;;3.85;76.18;101619.94;4831971;29;20153;-81
2021/04/25 02:03:16;;;;;;;21.63;6.65;;;2.80;99.90;;;3.94;76.17;101620.97;4833202;29;20026;-81
2021/04/25 02:05:43;;;;;;;14.98;5.80;;;2.90;99.90;;;4.02;75.71;101605.66;4830346;29;20042;-81
2021/04/25 02:08:13;;;;;;;16.48;6.07;;;3.00;99.90;;;4.12;75.97;101611.94;4830926;29;20034;-83
2021/04/25 02:10:42;;;;;;;11.23;6.15;;;3.00;99.90;;;4.17;75.73;101622.13;4832047;29;20340;-80
2021/04/25 02:13:10;;;;;;;15.68;6.47;;;3.10;99.90;;;4.19;75.48;101614.34;4831248;29;20042;-82
2021/04/25 02:15:37;;;;;;;19.73;7.00;;;3.10;99.90;;;4.15;75.53;101614.09;4831123;29;20117;-85
2021/04/25 02:18:03;;;;;;;11.93;5.65;;;3.10;99.90;;;4.21;75.43;101606.56;4830643;29;20039;-81
2021/04/25 02:20:31;;;;;;;14.88;6.63;;;3.20;99.90;;;4.21;75.56;101604.63;4830492;29;20042;-82
2021/04/25 02:22:57;;;;;;;16.55;6.55;;;3.20;99.90;;;4.27;75.39;101608.16;4830043;29;20135;-84
2021/04/25 02:25:24;;;;;;;13.40;5.53;;;3.20;99.90;;;4.31;75.29;101602.88;4831510;29;20703;-82
2021/04/25 02:27:51;;;;;;;13.18;6.03;;;3.20;99.90;;;4.36;75.09;101600.06;4831054;29;20087;-84
2021/04/25 02:30:27;;;;;;;15.02;5.95;;;3.30;99.90;;;4.44;75.05;101604.94;4832737;29;20034;-83
2021/04/25 02:32:55;;;;;;;15.05;6.15;;;3.30;99.90;;;4.47;74.88;101596.06;4840034;29;20059;-80
2021/04/25 02:35:23;;;;;;;13.20;5.53;;;3.30;99.90;;;4.53;74.71;101606.75;4832923;29;20158;-82
2021/04/25 02:37:52;;;;;;;16.27;6.25;;;3.40;99.90;;;4.59;74.33;101602.03;4830865;29;20061;-82
2021/04/25 02:40:24;;;;;;;17.70;6.65;;;3.50;99.90;;;4.65;74.12;101603.59;4829745;29;20122;-82
2021/04/25 02:42:52;;;;;;;19.23;6.40;;;3.50;99.90;;;4.70;73.60;101609.88;4825777;29;20074;-84
2021/04/25 02:45:20;;;;;;;16.83;7.10;;;3.60;99.90;;;4.81;73.26;101607.00;4825703;29;20415;-83
2021/04/25 02:48:00;;;;;;;16.50;6.20;;;3.70;99.90;;;4.91;72.92;101606.88;4826418;29;20030;-82
2021/04/25 02:50:40;;;;;;;14.93;5.78;;;3.80;99.90;;;4.89;71.61;101612.69;4825172;29;20050;-84
2021/04/25 02:53:08;;;;;;;15.10;5.63;;;3.80;99.90;;;4.98;71.54;101608.13;4830943;29;20027;-85
2021/04/25 02:55:35;;;;;;;12.18;5.45;;;3.90;99.90;;;5.02;70.61;101600.06;4829765;29;20476;-86
2021/04/25 02:58:04;;;;;;;15.77;5.75;;;3.90;99.90;;;5.06;70.91;101601.13;4828149;29;20133;-84
2021/04/25 03:00:34;;;;;;;13.93;5.95;;;3.90;99.90;;;5.03;70.58;101604.47;4829491;29;20205;-84
2021/04/25 03:03:01;;;;;;;14.98;6.10;;;3.90;99.90;;;5.10;70.17;101607.72;4831203;29;20090;-83
2021/04/25 03:05:27;;;;;;;10.18;4.80;;;4.00;99.90;;;5.09;70.12;101608.81;4829649;29;20094;-84
2021/04/25 03:07:54;;;;;;;15.82;5.88;;;3.90;99.90;;;5.01;69.80;101603.97;4830775;29;20032;-81
2021/04/25 03:10:22;;;;;;;10.70;4.65;;;3.90;99.90;;;5.00;70.24;101596.78;4830043;29;20030;-83
2021/04/25 03:12:49;;;;;;;13.23;5.80;;;3.90;99.90;;;4.90;69.90;101600.50;4831730;29;20442;-85
2021/04/25 03:15:18;;;;;;;13.77;5.75;;;3.80;99.90;;;4.95;69.93;101600.41;4831846;29;20049;-84
2021/04/25 03:17:46;;;;;;;16.05;6.43;;;3.90;99.90;;;5.04;69.88;101601.41;4845609;29;20034;-84
2021/04/25 03:20:16;;;;;;;10.52;5.35;;;3.90;99.90;;;5.09;69.34;101603.28;4830251;29;20035;-85
2021/04/25 03:22:43;;;;;;;12.23;6.18;;;3.90;99.90;;;5.12;69.39;101606.28;4831329;29;20030;-83
2021/04/25 03:25:12;;;;;;;11.55;5.22;;;4.00;99.90;;;5.13;69.29;101607.13;4842480;29;20137;-84
2021/04/25 03:27:40;;;;;;;11.35;5.25;;;4.00;99.90;;;5.14;68.89;101592.94;4843118;29;20525;-82
2021/04/25 03:30:10;;;;;;;13.52;5.28;;;4.00;99.90;;;5.10;68.70;101593.88;4828079;29;20027;-84
2021/04/25 03:32:37;;;;;;;16.55;6.28;;;4.00;99.90;;;5.19;68.51;101601.19;4826257;29;20030;-83
2021/04/25 03:35:08;;;;;;;17.08;6.47;;;4.00;99.90;;;5.13;67.98;101590.50;4827678;29;20098;-82
2021/04/25 03:37:36;;;;;;;14.27;5.78;;;4.00;99.90;;;5.16;67.92;101599.03;4827430;29;20110;-82
2021/04/25 03:40:06;;;;;;;15.93;6.78;;;4.00;99.90;;;5.16;68.40;101595.44;4827927;29;20038;-83
2021/04/25 03:42:34;;;;;;;12.70;6.07;;;4.00;99.90;;;5.16;68.59;101603.75;4827820;29;20404;-83
2021/04/25 03:45:00;;;;;;;15.30;6.03;;;4.00;99.90;;;5.12;68.88;101599.91;4829718;29;20022;-83
2021/04/25 03:47:26;;;;;;;17.23;7.25;;;4.00;99.90;;;5.13;68.48;101602.41;4829977;29;20055;-82
2021/04/25 03:49:52;;;;;;;16.42;6.57;;;3.90;99.90;;;5.12;68.43;101594.38;4829519;29;20030;-84
2021/04/25 03:52:18;;;;;;;11.63;6.35;;;3.90;99.90;;;5.05;68.83;101588.38;4829546;29;20040;-84
2021/04/25 03:54:44;;;;;;;15.63;6.18;;;3.90;99.90;;;5.03;68.77;101591.47;4829478;29;20038;-84
2021/04/25 03:57:10;;;;;;;10.68;5.50;;;3.90;99.90;;;5.05;68.78;101600.28;4828179;29;20042;-82
2021/04/25 03:59:36;;;;;;;14.13;5.78;;;3.90;99.90;;;5.10;68.24;101588.31;4827813;29;20091;-84
2021/04/25 04:02:03;;;;;;;13.57;6.20;;;3.90;99.90;;;5.09;68.56;101594.97;4829578;29;20027;-82
2021/04/25 04:04:30;;;;;;;11.20;5.97;;;3.90;99.90;;;5.14;68.12;101594.91;4843315;29;20053;-84
2021/04/25 04:06:55;;;;;;;13.00;6.05;;;4.00;99.90;;;5.16;68.20;101595.44;4829228;29;20041;-85
2021/04/25 04:09:21;;;;;;;11.48;5.50;;;4.00;99.90;;;5.26;67.86;101592.53;4829179;29;20027;-84
2021/04/25 04:11:47;;;;;;;15.50;5.32;;;4.10;99.90;;;5.27;67.57;101600.50;4828198;29;20057;-84
2021/04/25 04:14:13;;;;;;;11.80;5.65;;;4.10;99.90;;;5.24;68.02;101603.06;4830624;29;20086;-82
2021/04/25 04:16:40;;;;;;;11.90;5.18;;;4.10;99.90;;;5.25;67.57;101597.22;4833566;29;20046;-84
2021/04/25 04:19:06;;;;;;;10.02;4.43;;;4.10;99.90;;;5.26;68.04;101598.06;4831313;29;20095;-84
2021/04/25 04:21:32;;;;;;;10.50;5.35;;;4.10;99.90;;;5.25;67.74;101597.22;4828954;29;20034;-83
2021/04/25 04:23:59;;;;;;;13.82;5.18;;;4.10;99.90;;;5.29;67.08;101594.69;4829132;29;20046;-82
2021/04/25 04:26:25;;;;;;;10.00;4.60;;;4.10;99.90;;;5.38;66.68;101603.97;4827738;29;20443;-83
2021/04/25 04:28:50;;;;;;;13.05;5.40;;;4.20;99.90;;;5.38;65.92;101598.44;4827385;29;20121;-84
2021/04/25 04:31:24;;;;;;;11.75;5.03;;;4.20;99.90;;;5.32;65.90;101596.84;4827860;29;20057;-82
2021/04/25 04:33:50;;;;;;;10.80;5.80;;;4.20;99.90;;;5.42;65.68;101593.09;4824160;29;20035;-82
2021/04/25 04:36:16;;;;;;;10.95;4.93;;;4.30;99.90;;;5.46;65.59;101602.47;4822804;29;20462;-83
2021/04/25 04:38:42;;;;;;;12.18;5.53;;;4.30;99.90;;;5.42;64.90;101593.09;4828629;29;20109;-84
2021/04/25 04:41:08;;;;;;;9.52;5.15;;;4.30;99.90;;;5.51;64.65;101594.06;4827874;29;20463;-84
2021/04/25 04:43:34;;;;;;;10.38;4.13;;;4.30;99.90;;;5.51;65.29;101589.34;4825947;29;20034;-83
2021/04/25 04:46:00;;;;;;;10.90;5.10;;;4.30;99.90;;;5.52;65.38;101590.19;4825575;29;20064;-83
2021/04/25 04:48:26;;;;;;;12.23;4.72;;;4.40;99.90;;;5.56;65.14;101602.28;4826179;29;20090;-82
2021/04/25 04:50:52;;;;;;;16.38;5.28;;;4.30;99.90;;;5.57;65.10;101602.00;4827527;29;20110;-83
2021/04/25 04:53:18;;;;;;;12.48;5.28;;;4.40;99.90;;;5.59;64.58;101596.97;4826083;29;20050;-82
2021/04/25 04:55:44;;;;;;;11.02;5.15;;;4.40;99.90;;;5.60;64.98;101601.41;4828500;29;20042;-82
2021/04/25 04:58:10;;;;;;;11.73;5.68;;;4.40;99.90;;;5.64;64.51;101607.16;4828051;29;20039;-83
2021/04/25 05:00:36;;;;;;;9.32;5.05;;;4.50;99.90;;;5.67;64.32;101596.28;4826725;29;20121;-82
2021/04/25 05:03:02;;;;;;;13.75;6.13;;;4.40;99.90;;;5.67;64.16;101609.31;4826363;29;20113;-84
2021/04/25 05:05:28;;;;;;;15.93;5.88;;;4.50;99.90;;;5.68;64.52;101614.56;4826938;29;20041;-84
2021/04/25 05:07:54;;;;;;;13.75;5.40;;;4.50;99.90;;;5.69;64.28;101616.22;4826899;29;20031;-84
2021/04/25 05:10:19;;;;;;;14.88;5.63;;;4.50;99.90;;;5.73;64.61;101617.25;4827929;29;20034;-84
2021/04/25 05:12:46;;;;;;;10.65;5.40;;;4.50;99.90;;;5.79;64.44;101618.81;4828902;29;20063;-84
2021/04/25 05:15:12;;;;;;;12.48;5.45;;;4.60;99.90;;;5.75;63.86;101622.47;4828303;29;20380;-85
2021/04/25 05:17:38;;;;;;;12.73;5.35;;;4.60;99.90;;;5.64;63.37;101621.00;4830059;29;20038;-83
2021/04/25 05:20:05;;;;;;;11.88;5.03;;;4.60;99.90;;;5.84;63.32;101618.72;4829517;29;20527;-84
2021/04/25 05:22:33;;;;;;;10.15;5.20;;;4.60;99.90;;;5.86;63.72;101624.00;4829706;29;20091;-83
2021/04/25 05:24:59;;;;;;;13.10;4.75;;;4.70;99.90;;;5.89;62.76;101619.78;4832312;29;20034;-83
2021/04/25 05:27:25;;;;;;;12.23;4.75;;;4.70;99.90;;;5.99;62.02;101619.63;4839826;29;20030;-82
2021/04/25 05:29:52;;;;;;;10.15;4.40;;;4.80;99.90;;;6.01;62.21;101626.50;4827251;29;20035;-82
2021/04/25 05:32:18;;;;;;;10.80;5.03;;;4.80;99.90;;;6.10;61.92;101630.22;4829927;29;20038;-83
2021/04/25 05:34:45;;;;;;;13.75;5.22;;;4.80;99.90;;;6.15;61.24;101637.66;4829329;29;20059;-83
2021/04/25 05:37:11;;;;;;;9.32;3.80;;;4.80;99.90;;;6.18;61.23;101634.25;4831085;29;20030;-82
2021/04/25 05:39:37;;;;;;;8.85;4.82;;;4.90;99.90;;;6.26;60.41;101633.56;4831038;29;20031;-84
2021/04/25 05:42:03;;;;;;;11.98;5.05;;;5.00;99.90;;;6.24;60.93;101633.03;4829587;29;20041;-81
2021/04/25 05:44:30;;;;;;;6.90;3.95;;;5.00;99.90;;;6.30;60.79;101637.34;4830947;29;20042;-84
2021/04/25 05:46:57;;;;;;;13.82;5.07;;;5.10;99.90;;;6.36;61.10;101642.50;4832933;29;20034;-82
2021/04/25 05:49:24;;;;;;;9.07;4.60;;;5.10;99.90;;;6.35;60.87;101638.09;4830267;29;20476;-86
2021/04/25 05:51:50;;;;;;;12.13;5.13;;;5.20;99.90;;;6.44;61.22;101643.75;4832164;29;20030;-84
2021/04/25 05:54:16;;;;;;;10.60;4.45;;;5.20;99.90;;;6.59;60.33;101649.00;4833489;29;20095;-86
2021/04/25 05:56:42;;;;;;;8.57;4.53;;;5.30;99.90;;;6.56;59.90;101654.34;4833309;29;20041;-84
2021/04/25 05:59:08;;;;;;;10.57;4.55;;;5.30;99.90;;;6.58;60.22;101666.00;4832303;29;20189;-83
2021/04/25 06:01:34;;;;;;;9.07;4.45;;;5.30;99.90;;;6.46;59.31;101657.31;4832170;29;20137;-84
2021/04/25 06:04:00;;;;;;;9.70;4.22;;;5.30;99.90;;;6.59;58.44;101665.66;4832393;29;20094;-83
2021/04/25 06:06:26;;;;;;;12.13;4.53;;;5.30;99.90;;;6.75;58.22;101660.63;4832467;29;20164;-85
2021/04/25 06:08:52;;;;;;;10.32;3.45;;;5.40;99.90;;;6.75;57.28;101650.34;4832911;29;20070;-82
2021/04/25 06:11:18;;;;;;;11.95;3.75;;;5.50;99.90;;;6.77;57.59;101661.16;4832024;29;20090;-83
2021/04/25 06:13:44;;;;;;;9.52;4.50;;;5.50;99.90;;;6.94;56.96;101658.56;4832025;29;20353;-84
2021/04/25 06:16:10;;;;;;;8.93;3.92;;;5.60;99.90;;;6.92;56.64;101660.03;4833525;29;20038;-85
2021/04/25 06:18:36;;;;;;;8.05;3.75;;;5.60;99.90;;;6.81;56.81;101653.84;4831380;29;20073;-83
2021/04/25 06:21:01;;;;;;;10.25;4.20;;;5.60;99.90;;;6.89;56.46;101664.25;4837254;29;20049;-85
2021/04/25 06:23:27;;;;;;;6.43;3.15;;;5.70;99.90;;;6.85;55.63;101664.03;4839958;29;20042;-81
2021/04/25 06:25:55;;;;;;;7.90;3.17;;;5.70;99.90;;;6.77;56.00;101673.09;4844583;29;20038;-80
2021/04/25 06:28:27;;;;;;;6.10;3.22;;;5.70;99.90;;;6.78;55.82;101671.13;4845054;29;20037;-81
2021/04/25 06:30:57;;;;;;;7.47;3.55;;;5.70;99.90;;;6.95;55.48;101670.53;4837970;29;20042;-81
2021/04/25 06:33:25;;;;;;;8.05;3.10;;;5.70;99.90;;;7.03;55.20;101678.94;4839273;29;20033;-83
2021/04/25 06:35:52;;;;;;;8.75;3.33;;;5.70;99.90;;;6.97;55.40;101674.63;4837799;29;20031;-80
2021/04/25 06:38:19;;;;;;;12.18;4.95;;;5.80;99.90;;;7.13;55.49;101686.22;4841555;29;20034;-83
2021/04/25 06:40:44;;;;;;;8.02;3.10;;;5.90;99.90;;;7.08;54.78;101678.03;4830429;29;20034;-79
2021/04/25 06:43:10;;;;;;;11.15;3.45;;;5.90;99.90;;;7.20;54.60;101683.88;4830226;29;20172;-81
2021/04/25 06:45:36;;;;;;;9.98;4.60;;;5.90;99.90;;;7.14;54.92;101682.34;4829915;29;20030;-82
2021/04/25 06:48:03;;;;;;;8.57;4.35;;;5.90;99.90;;;7.17;54.34;101688.09;4831523;29;20034;-81
2021/04/25 06:50:29;;;;;;;7.88;3.60;;;5.90;99.90;;;7.25;54.72;101692.94;4830515;29;20035;-80
2021/04/25 06:52:55;;;;;;;8.18;3.13;;;5.90;99.90;;;7.38;54.38;101686.50;4829335;29;20091;-83
2021/04/25 06:55:25;;;;;;;11.27;4.85;;;6.10;99.90;;;7.57;54.22;101686.41;4829864;29;20037;-82
2021/04/25 06:57:52;;;;;;;12.02;3.88;;;6.20;99.90;;;7.59;54.13;101683.28;4828059;29;20464;-83
2021/04/25 07:00:24;;;;;;;13.15;4.85;;;6.20;99.90;;;7.61;54.06;101683.81;4829158;29;20044;-82
2021/04/25 07:02:56;;;;;;;8.55;4.38;;;6.30;99.90;;;7.50;53.86;101694.34;4826437;29;20379;-85
2021/04/25 07:05:28;;;;;;;11.43;4.70;;;6.30;99.90;;;7.66;53.85;101681.72;4826360;29;20044;-85
2021/04/25 07:07:56;;;;;;;10.75;3.65;;;6.40;99.90;;;7.95;53.07;101690.47;4828198;29;20050;-84
2021/04/25 07:10:25;;;;;;;11.27;4.00;;;6.50;99.90;;;8.05;52.33;101685.81;4829560;29;20113;-83
2021/04/25 07:12:53;;;;;;;10.40;4.45;;;6.60;99.90;;;7.64;53.02;101700.66;4829117;29;20030;-82
2021/04/25 07:15:19;;;;;;;6.55;4.45;;;6.60;99.90;;;7.67;52.60;101693.69;4827760;29;20039;-83
2021/04/25 07:17:45;;;;;;;8.95;4.40;;;6.60;99.90;;;7.81;52.76;101698.03;4829716;29;20352;-86
2021/04/25 07:20:12;;;;;;;13.70;5.00;;;6.60;99.90;;;7.65;53.33;101704.28;4828555;29;20495;-82
2021/04/25 07:22:40;;;;;;;10.57;4.75;;;6.60;99.90;;;7.82;52.51;101699.69;4827627;29;20034;-85
2021/04/25 07:25:09;;;;;;;8.43;5.20;;;6.70;99.90;;;8.09;52.41;101701.53;4825981;29;20071;-82
2021/04/25 07:27:36;;;;;;;9.95;5.53;;;6.80;99.90;;;8.12;51.94;101698.16;4826368;29;20034;-82
2021/04/25 07:30:06;;;;;;;12.55;5.85;;;6.90;99.90;;;8.33;50.92;101704.03;4826902;29;20083;-83
2021/04/25 07:32:31;;;;;;;7.93;4.13;;;7.00;99.90;;;8.44;50.76;101699.84;4826263;29;20519;-82
2021/04/25 07:34:57;;;;;;;7.60;3.65;;;7.00;99.90;;;8.34;51.02;101708.47;4830311;29;20035;-83
2021/04/25 07:37:23;;;;;;;8.50;3.47;;;7.00;99.90;;;8.35;50.87;101702.56;4835606;29;20037;-82
2021/04/25 07:39:49;;;;;;;9.55;3.50;;;7.00;99.90;;;8.48;50.87;101698.06;4830578;29;20114;-84
2021/04/25 07:42:17;;;;;;;7.78;4.30;;;7.10;99.90;;;8.62;50.63;101703.53;4832969;29;20038;-84
2021/04/25 07:44:44;;;;;;;9.40;5.15;;;7.20;99.90;;;8.73;50.35;101710.50;4830042;29;20038;-85
2021/04/25 07:47:10;;;;;;;10.70;5.88;;;7.30;99.90;;;8.83;50.31;101705.44;4830390;29;20038;-84
2021/04/25 07:49:37;;;;;;;10.63;5.90;;;7.30;99.90;;;8.98;50.23;101704.22;4829766;29;20054;-82
2021/04/25 07:52:04;;;;;;;13.68;6.88;;;7.50;99.90;;;8.70;49.67;101708.34;4831770;29;20468;-84
2021/04/25 07:54:30;;;;;;;12.35;7.53;;;7.50;98.10;;;8.90;49.93;101700.25;4836424;29;20452;-82
2021/04/25 07:56:57;;;;;;;13.93;7.70;;;7.50;98.30;;;9.18;49.75;101697.25;4832468;29;20165;-81
2021/04/25 07:59:23;;;;;;;15.15;8.50;;;7.60;99.20;;;9.28;50.04;101697.75;4830574;29;20042;-84
2021/04/25 08:01:49;;;;;;;13.77;7.95;;;7.70;99.40;;;9.46;48.97;101699.44;4834554;29;20490;-82
2021/04/25 08:04:15;;;;;;;13.18;5.97;;;7.90;97.90;;;9.48;48.89;101707.47;4830655;29;20034;-82
2021/04/25 08:06:43;;;;;;;13.50;4.90;;;8.00;96.30;;;9.76;47.48;101706.03;4833177;29;20027;-83
2021/04/25 08:09:11;;;;;;;8.35;4.13;;;8.20;95.20;;;9.70;48.64;101700.91;4836885;29;20031;-80
2021/04/25 08:11:38;;;;;;;12.05;6.75;;;8.20;96.00;;;9.77;48.01;101701.25;4833279;29;20475;-84
2021/04/25 08:14:05;;;;;;;13.40;10.20;;;8.30;94.30;;;9.86;47.01;101702.09;4832634;29;20182;-84
2021/04/25 08:16:32;;;;;;;18.95;12.13;;;8.40;92.70;;;9.68;46.96;101700.44;4832028;29;20034;-82
2021/04/25 08:18:58;;;;;;;15.65;11.07;;;8.30;91.50;;;9.77;47.68;101692.91;4831859;29;20111;-86
2021/04/25 08:21:32;;;;;;;12.23;7.95;;;8.30;92.80;;;9.23;47.71;101694.28;4841665;29;20449;-82
2021/04/25 08:23:59;;;;;;;11.35;6.60;;;8.00;91.80;;;9.27;47.89;101698.91;4834478;29;20501;-81
2021/04/25 08:26:25;;;;;;;11.00;5.32;;;7.90;92.20;;;10.28;48.13;101694.88;4832018;29;20117;-83
2021/04/25 08:28:52;;;;;;;10.80;5.55;;;8.60;94.10;;;11.72;43.28;101707.78;4830703;29;20034;-84
2021/04/25 08:31:18;;;;;;;8.35;3.90;;;9.80;87.10;;;12.48;40.62;101697.84;4829916;29;20122;-84
2021/04/25 08:33:44;;;;;;;8.32;5.32;;;10.80;77.20;;;13.31;39.11;101705.13;4830606;29;20030;-83
2021/04/25 08:36:11;;;;;;;9.95;4.82;;;11.60;72.50;;;13.26;39.36;101696.94;4831448;29;20097;-83
2021/04/25 08:38:37;;;;;;;7.95;5.00;;;12.00;68.80;;;13.18;39.68;101701.50;4830319;29;20137;-83
2021/04/25 08:41:05;;;;;;;10.77;3.95;;;12.00;68.20;;;13.67;38.11;101707.91;4831323;29;20507;-82
2021/04/25 08:43:34;;;;;;;8.52;3.83;;;12.40;65.80;;;14.25;37.73;101704.41;4836221;29;20109;-84
2021/04/25 08:46:03;;;;;;;8.10;3.20;;;12.70;64.80;;;13.64;38.45;101705.78;4854701;29;20034;-84
2021/04/25 08:48:29;;;;;;;7.07;3.03;;;12.30;64.20;;;13.23;38.81;101704.06;4838237;29;20460;-85
2021/04/25 08:50:56;;;;;;;6.03;3.65;;;11.90;64.20;;;12.96;39.05;101705.53;4839547;29;20034;-85
2021/04/25 08:53:25;;;;;;;5.13;3.22;;;11.40;65.40;;;13.35;38.94;101706.88;4836388;29;20030;-83
2021/04/25 08:55:52;;;;;;;9.10;5.07;;;11.70;66.10;;;13.04;38.78;101706.59;4836016;29;20077;-83
2021/04/25 08:58:21;;;;;;;8.77;4.30;;;11.50;65.70;;;12.62;40.43;101709.56;4841938;29;20078;-83
2021/04/25 09:00:48;;;;;;;8.35;4.10;;;11.00;67.90;;;12.28;41.15;101711.88;4838968;29;20027;-83
2021/04/25 09:03:17;;;;;;;9.60;3.60;;;10.80;69.10;;;11.70;42.64;101707.25;4837854;29;20031;-83
2021/04/25 09:05:44;;;;;;;5.90;3.33;;;10.50;70.70;;;11.71;42.79;101700.53;4836211;29;20109;-81
2021/04/25 09:08:11;;;;;;;5.55;3.00;;;10.20;71.70;;;11.79;42.93;101711.66;4834492;29;20058;-85
2021/04/25 09:10:43;;;;;;;4.65;2.85;;;10.20;72.70;;;11.93;42.79;101705.78;4837354;29;20057;-84
2021/04/25 09:13:24;;;;;;;7.32;2.85;;;10.20;73.10;;;11.69;42.39;101700.81;4833810;29;20067;-84
2021/04/25 09:15:55;;;;;;;10.25;2.70;;;10.20;71.80;;;11.86;42.30;101706.31;4831698;29;20038;-86
2021/04/25 09:18:51;;;;;;;4.25;2.88;;;10.30;72.00;;;12.32;41.80;101704.44;4833826;29;20061;-82
2021/04/25 09:21:17;;;;;;;5.80;2.77;;;10.60;71.70;;;12.13;41.06;101705.78;4822208;29;20069;-82
2021/04/25 09:23:43;;;;;;;6.18;2.60;;;10.50;69.90;;;11.55;42.34;101697.47;4836925;29;20350;-85
2021/04/25 09:26:10;;;;;;;5.00;2.40;;;10.20;70.90;;;11.63;42.67;101697.41;4834252;29;20034;-84
2021/04/25 09:28:38;;;;;;;4.85;2.15;;;10.10;72.20;;;11.94;42.00;101694.25;4834607;29;20091;-79
2021/04/25 09:31:16;;;;;;;7.40;2.58;;;10.40;71.40;;;11.79;42.48;101689.25;4835977;29;20117;-83
2021/04/25 09:33:55;;;;;;;8.98;2.38;;;10.40;71.50;;;11.91;41.98;101691.31;4835273;29;20026;-80
2021/04/25 09:36:31;;;;;;;5.90;2.20;;;10.50;70.00;;;11.96;41.56;101702.28;4832238;29;20034;-81
2021/04/25 09:39:19;;;;;;;8.15;3.00;;;10.60;70.00;;;11.60;42.78;101697.25;4834032;29;20074;-79
2021/04/25 09:41:48;;;;;;;5.50;2.60;;;10.40;71.20;;;11.45;42.46;101692.28;4841145;29;20444;-83
2021/04/25 09:44:37;;;;;;;8.32;2.60;;;10.20;71.20;;;10.92;44.12;101684.47;4842331;29;20033;-79
2021/04/25 09:47:05;;;;;;;7.47;2.35;;;9.60;73.00;;;10.93;44.82;101694.53;4844037;29;20060;-81
2021/04/25 09:49:52;;;;;;;6.78;2.45;;;9.50;75.00;;;11.37;44.18;101693.97;4835344;29;20031;-80
2021/04/25 09:52:27;;;;;;;4.53;2.20;;;9.70;74.20;;;11.62;42.91;101704.16;4834955;29;20041;-81
2021/04/25 09:55:32;;;;;;;5.57;2.40;;;9.90;72.90;;;11.27;42.19;101694.34;4836011;29;20460;-84
2021/04/25 09:58:13;;;;;;;4.03;2.35;;;9.90;71.70;;;10.90;43.87;101689.59;4836604;29;20468;-83
2021/04/25 10:00:51;;;;;;;4.72;2.72;;;9.70;72.60;;;10.87;44.39;101682.72;4835867;29;20038;-85
2021/04/25 10:03:22;;;;;;;7.70;2.50;;;9.60;73.10;;;10.90;43.21;101692.41;4835150;29;20026;-86
2021/04/25 10:06:18;;;;;;;6.55;2.53;;;9.50;72.80;;;10.90;44.66;101695.19;4838181;29;20026;-83
2021/04/25 10:08:49;;;;;;;7.05;2.85;;;9.60;74.40;;;11.58;42.63;101694.81;4842450;29;20117;-80
2021/04/25 10:11:20;;;;;;;9.20;2.80;;;10.20;71.80;;;13.02;40.73;101695.72;4844076;29;20047;-79
2021/04/25 10:13:48;;;;;;;9.55;2.17;;;11.30;69.80;;;14.69;37.13;101691.25;4844040;29;20091;-82
2021/04/25 10:16:21;;;;;;;5.82;2.42;;;12.50;66.30;;;15.18;35.23;101682.44;4827630;29;20031;-84
2021/04/25 10:18:50;;;;;;;6.55;2.88;;;13.20;61.90;;;15.74;37.35;101680.16;4829319;29;20034;-82
2021/04/25 10:21:16;;;;;;;4.50;2.80;;;14.00;63.30;;;15.13;35.05;101680.72;4836554;29;20069;-85
2021/04/25 10:23:42;;;;;;;9.15;2.70;;;13.90;57.90;;;15.54;36.07;101668.03;4827855;29;20605;-85
2021/04/25 10:26:21;;;;;;;5.88;3.47;;;14.00;60.10;;;15.21;35.37;101674.09;4848942;29;20046;-83